createdAt,value
2018-08-11T00:00:40.785Z,1.40
2018-08-11T00:03:08.081Z,2.07
2018-08-11T00:05:35.393Z,1.53
2018-08-11T00:08:02.726Z,1.70
2018-08-11T00:10:30.081Z,1.60
2018-08-11T00:12:57.403Z,1.53
2018-08-11T00:15:24.731Z,1.67
2018-08-11T00:17:52.029Z,1.70
2018-08-11T00:20:23.568Z,1.57
2018-08-11T00:22:50.871Z,1.70
2018-08-11T00:25:18.197Z,1.97
2018-08-11T00:27:45.482Z,2.10
2018-08-11T00:30:14.453Z,1.80
2018-08-11T00:32:41.793Z,1.90
2018-08-11T00:35:09.604Z,2.10
2018-08-11T00:37:36.918Z,2.33
2018-08-11T00:40:06.701Z,2.30
2018-08-11T00:42:34.149Z,1.90
2018-08-11T00:45:01.437Z,2.17
2018-08-11T00:47:28.765Z,1.60
2018-08-11T00:49:56.056Z,2.10
2018-08-11T00:52:23.333Z,2.00
2018-08-11T00:54:50.639Z,1.70
2018-08-11T00:57:18.002Z,2.43
2018-08-11T00:59:45.307Z,2.83
2018-08-11T01:02:12.626Z,2.17
2018-08-11T01:04:39.913Z,1.87
2018-08-11T01:07:07.232Z,1.97
2018-08-11T01:09:34.537Z,2.10
2018-08-11T01:12:01.843Z,1.90
2018-08-11T01:14:29.144Z,1.90
2018-08-11T01:16:56.450Z,1.67
2018-08-11T01:19:23.789Z,2.00
2018-08-11T01:21:51.082Z,1.87
2018-08-11T01:24:18.465Z,1.70
2018-08-11T01:26:45.753Z,1.70
2018-08-11T01:29:13.118Z,1.70
2018-08-11T01:31:40.451Z,1.70
2018-08-11T01:34:07.760Z,1.97
2018-08-11T01:36:35.077Z,1.83
2018-08-11T01:39:02.467Z,1.70
2018-08-11T01:41:29.798Z,1.80
2018-08-11T01:43:57.105Z,1.50
2018-08-11T01:46:24.422Z,1.40
2018-08-11T01:48:51.706Z,1.70
2018-08-11T01:51:19.017Z,1.90
2018-08-11T01:53:46.767Z,1.73
2018-08-11T01:56:14.082Z,2.37
2018-08-11T01:58:41.406Z,1.83
2018-08-11T02:01:08.736Z,1.50
2018-08-11T02:03:36.018Z,1.60
2018-08-11T02:06:03.340Z,2.50
2018-08-11T02:08:30.702Z,2.30
2018-08-11T02:10:58.017Z,1.70
2018-08-11T02:13:25.353Z,1.60
2018-08-11T02:15:52.658Z,2.17
2018-08-11T02:18:19.966Z,1.60
2018-08-11T02:20:47.275Z,1.90
2018-08-11T02:23:14.630Z,1.90
2018-08-11T02:25:41.946Z,1.60
2018-08-11T02:28:09.591Z,1.80
2018-08-11T02:30:36.897Z,1.70
2018-08-11T02:33:04.195Z,1.90
2018-08-11T02:35:31.516Z,1.50
2018-08-11T02:37:58.826Z,1.83
2018-08-11T02:40:26.253Z,1.70
2018-08-11T02:42:53.568Z,1.87
2018-08-11T02:45:20.887Z,2.30
2018-08-11T02:47:48.205Z,2.67
2018-08-11T02:50:15.498Z,1.80
2018-08-11T02:52:42.830Z,2.33
2018-08-11T02:55:10.166Z,2.00
2018-08-11T02:57:37.475Z,2.00
2018-08-11T03:00:05.919Z,1.90
2018-08-11T03:02:33.353Z,1.70
2018-08-11T03:05:00.561Z,1.90
2018-08-11T03:07:27.864Z,1.83
2018-08-11T03:09:55.154Z,2.13
2018-08-11T03:12:22.460Z,2.40
2018-08-11T03:14:49.749Z,1.90
2018-08-11T03:17:17.154Z,2.50
2018-08-11T03:19:44.454Z,2.00
2018-08-11T03:22:11.773Z,1.93
2018-08-11T03:24:39.085Z,1.40
2018-08-11T03:27:06.419Z,1.80
2018-08-11T03:29:33.713Z,1.93
2018-08-11T03:32:01.014Z,1.77
2018-08-11T03:34:28.357Z,1.63
2018-08-11T03:36:55.670Z,2.63
2018-08-11T03:39:22.990Z,2.80
2018-08-11T03:41:50.298Z,2.40
2018-08-11T03:44:17.593Z,1.90
2018-08-11T03:46:44.889Z,1.90
2018-08-11T03:49:12.241Z,2.00
2018-08-11T03:51:39.610Z,2.00
2018-08-11T03:54:07.190Z,2.30
2018-08-11T03:56:34.496Z,2.03
2018-08-11T03:59:01.798Z,2.13
2018-08-11T04:01:29.109Z,2.13
2018-08-11T04:03:56.414Z,1.90
2018-08-11T04:06:23.730Z,2.30
2018-08-11T04:08:51.027Z,2.27
2018-08-11T04:11:18.317Z,2.77
2018-08-11T04:13:45.633Z,2.53
2018-08-11T04:16:12.954Z,2.40
2018-08-11T04:18:40.263Z,2.70
2018-08-11T04:21:07.567Z,2.27
2018-08-11T04:23:34.886Z,2.43
2018-08-11T04:26:02.184Z,2.40
2018-08-11T04:28:29.501Z,2.00
2018-08-11T04:30:56.793Z,1.97
2018-08-11T04:33:24.095Z,2.00
2018-08-11T04:35:51.400Z,2.20
2018-08-11T04:38:18.739Z,2.10
2018-08-11T04:40:46.009Z,2.50
2018-08-11T04:43:13.318Z,2.30
2018-08-11T04:45:40.618Z,2.47
2018-08-11T04:48:07.916Z,3.10
2018-08-11T04:50:35.198Z,1.90
2018-08-11T04:53:02.525Z,2.10
2018-08-11T04:55:29.856Z,2.20
2018-08-11T04:57:57.145Z,2.30
2018-08-11T05:00:24.474Z,2.17
2018-08-11T05:02:51.794Z,2.13
2018-08-11T05:05:19.088Z,2.90
2018-08-11T05:07:46.413Z,2.30
2018-08-11T05:10:13.718Z,2.70
2018-08-11T05:12:41.041Z,2.30
2018-08-11T05:15:08.357Z,2.30
2018-08-11T05:17:35.666Z,2.60
2018-08-11T05:20:03.002Z,2.33
2018-08-11T05:22:30.338Z,2.47
2018-08-11T05:24:57.625Z,2.40
2018-08-11T05:27:24.942Z,2.40
2018-08-11T05:29:52.671Z,2.50
2018-08-11T05:32:19.966Z,2.50
2018-08-11T05:34:47.258Z,2.40
2018-08-11T05:37:14.576Z,1.73
2018-08-11T05:39:41.859Z,2.20
2018-08-11T05:42:09.185Z,1.80
2018-08-11T05:44:36.498Z,2.17
2018-08-11T05:47:04.054Z,1.90
2018-08-11T05:49:31.375Z,2.00
2018-08-11T05:51:58.678Z,2.20
2018-08-11T05:54:26.022Z,1.97
2018-08-11T05:56:53.310Z,1.70
2018-08-11T05:59:20.612Z,2.10
2018-08-11T06:01:47.906Z,2.20
2018-08-11T06:04:15.257Z,1.67
2018-08-11T06:06:42.553Z,1.90
2018-08-11T06:09:09.912Z,1.93
2018-08-11T06:11:37.247Z,1.83
2018-08-11T06:14:06.358Z,2.20
2018-08-11T06:16:33.640Z,2.17
2018-08-11T06:19:00.941Z,2.03
2018-08-11T06:21:28.232Z,2.43
2018-08-11T06:23:55.555Z,2.20
2018-08-11T06:26:22.825Z,2.20
2018-08-11T06:28:50.150Z,2.00
2018-08-11T06:31:17.515Z,2.37
2018-08-11T06:33:44.827Z,2.10
2018-08-11T06:36:12.134Z,2.30
2018-08-11T06:38:39.598Z,2.40
2018-08-11T06:41:06.918Z,2.13
2018-08-11T06:43:34.215Z,2.30
2018-08-11T06:46:01.505Z,2.63
2018-08-11T06:48:28.910Z,2.20
2018-08-11T06:50:56.292Z,2.10
2018-08-11T06:53:23.568Z,1.87
2018-08-11T06:55:50.895Z,2.73
2018-08-11T06:58:18.191Z,1.90
2018-08-11T07:00:45.474Z,2.10
2018-08-11T07:03:12.816Z,1.80
2018-08-11T07:05:40.181Z,2.27
2018-08-11T07:08:07.574Z,2.50
2018-08-11T07:10:34.891Z,2.60
2018-08-11T07:13:02.202Z,2.20
2018-08-11T07:15:29.478Z,2.27
2018-08-11T07:17:56.799Z,2.27
2018-08-11T07:20:24.553Z,2.33
2018-08-11T07:22:51.850Z,2.07
2018-08-11T07:25:19.150Z,2.10
2018-08-11T07:27:46.435Z,2.00
2018-08-11T07:30:13.761Z,2.70
2018-08-11T07:32:41.049Z,2.60
2018-08-11T07:35:08.340Z,3.03
2018-08-11T07:37:35.673Z,2.57
2018-08-11T07:40:03.649Z,2.33
2018-08-11T07:42:30.954Z,2.10
2018-08-11T07:44:58.271Z,2.23
2018-08-11T07:47:25.646Z,2.87
2018-08-11T07:49:52.894Z,2.10
2018-08-11T07:52:20.207Z,2.50
2018-08-11T07:54:47.524Z,2.07
2018-08-11T07:57:14.859Z,2.10
2018-08-11T07:59:42.326Z,2.00
2018-08-11T08:02:09.598Z,3.90
2018-08-11T08:04:36.910Z,2.27
2018-08-11T08:07:04.254Z,1.73
2018-08-11T08:09:31.560Z,2.37
2018-08-11T08:11:58.847Z,1.80
2018-08-11T08:14:26.122Z,1.90
2018-08-11T08:16:53.433Z,1.93
2018-08-11T08:19:20.735Z,2.23
2018-08-11T08:21:48.148Z,2.10
2018-08-11T08:24:15.487Z,1.80
2018-08-11T08:26:42.774Z,1.70
2018-08-11T08:29:10.103Z,2.17
2018-08-11T08:31:37.402Z,1.70
2018-08-11T08:34:04.727Z,1.80
2018-08-11T08:36:32.022Z,1.90
2018-08-11T08:38:59.311Z,2.13
2018-08-11T08:41:26.609Z,1.97
2018-08-11T08:43:54.189Z,1.80
2018-08-11T08:46:22.190Z,1.90
2018-08-11T08:48:49.510Z,1.70
2018-08-11T08:51:16.828Z,2.47
2018-08-11T08:53:44.121Z,1.40
2018-08-11T08:56:11.422Z,1.40
2018-08-11T08:58:38.708Z,1.80
2018-08-11T09:01:06.051Z,1.80
2018-08-11T09:03:33.364Z,1.50
2018-08-11T09:06:00.663Z,1.70
2018-08-11T09:08:28.058Z,1.30
2018-08-11T09:10:55.388Z,1.43
2018-08-11T09:13:22.758Z,1.30
2018-08-11T09:15:50.101Z,1.30
2018-08-11T09:18:17.373Z,1.70
2018-08-11T09:20:44.765Z,1.23
2018-08-11T09:23:12.075Z,1.50
2018-08-11T09:25:39.386Z,0.87
2018-08-11T09:28:06.683Z,1.07
2018-08-11T09:30:34.021Z,1.07
2018-08-11T09:33:01.314Z,1.37
2018-08-11T09:35:28.614Z,1.20
2018-08-11T09:37:56.187Z,1.17
2018-08-11T09:40:23.497Z,1.20
2018-08-11T09:42:50.775Z,1.23
2018-08-11T09:45:18.088Z,1.63
2018-08-11T09:47:45.390Z,1.30
2018-08-11T09:50:12.679Z,1.20
2018-08-11T09:52:40.124Z,1.77
2018-08-11T09:55:07.422Z,1.10
2018-08-11T09:57:34.810Z,1.77
2018-08-11T10:00:02.263Z,1.60
2018-08-11T10:02:29.550Z,2.27
2018-08-11T10:04:56.941Z,1.50
2018-08-11T10:07:24.226Z,1.57
2018-08-11T10:09:51.554Z,1.60
2018-08-11T10:12:18.837Z,1.10
2018-08-11T10:14:46.205Z,1.60
2018-08-11T10:17:13.493Z,1.30
2018-08-11T10:19:40.853Z,1.53
2018-08-11T10:22:08.161Z,1.23
2018-08-11T10:24:35.496Z,1.67
2018-08-11T10:27:02.928Z,1.53
2018-08-11T10:29:30.273Z,1.33
2018-08-11T10:31:57.555Z,1.53
2018-08-11T10:34:25.033Z,1.00
2018-08-11T10:36:52.287Z,1.13
2018-08-11T10:39:19.681Z,1.47
2018-08-11T10:41:47.041Z,1.50
2018-08-11T10:44:14.349Z,2.00
2018-08-11T10:46:41.670Z,1.63
2018-08-11T10:49:08.982Z,1.43
2018-08-11T10:51:36.302Z,1.50
2018-08-11T10:54:03.666Z,1.30
2018-08-11T10:56:31.341Z,1.40
2018-08-11T10:58:58.647Z,1.10
2018-08-11T11:01:26.007Z,1.20
2018-08-11T11:03:53.367Z,1.10
2018-08-11T11:06:20.673Z,1.40
2018-08-11T11:08:47.965Z,1.67
2018-08-11T11:11:15.274Z,0.90
2018-08-11T11:13:42.573Z,1.30
2018-08-11T11:16:10.027Z,1.03
2018-08-11T11:18:37.307Z,1.30
2018-08-11T11:21:04.651Z,1.20
2018-08-11T11:23:32.058Z,1.00
2018-08-11T11:25:59.406Z,0.97
2018-08-11T11:28:26.733Z,1.13
2018-08-11T11:30:54.064Z,1.10
2018-08-11T11:33:21.359Z,1.47
2018-08-11T11:35:48.673Z,1.00
2018-08-11T11:38:15.984Z,1.30
2018-08-11T11:40:43.346Z,0.90
2018-08-11T11:43:10.716Z,1.03
2018-08-11T11:45:38.039Z,1.00
2018-08-11T11:48:05.634Z,1.13
2018-08-11T11:50:33.005Z,1.30
2018-08-11T11:53:00.286Z,1.00
2018-08-11T11:55:27.657Z,1.23
2018-08-11T11:57:54.971Z,1.10
2018-08-11T12:00:22.274Z,1.03
2018-08-11T12:02:49.596Z,1.07
2018-08-11T12:05:17.022Z,1.03
2018-08-11T12:07:44.377Z,1.00
2018-08-11T12:10:11.687Z,1.00
2018-08-11T12:12:39.001Z,1.20
2018-08-11T12:15:06.537Z,1.30
2018-08-11T12:17:33.966Z,1.40
2018-08-11T12:20:01.332Z,1.27
2018-08-11T12:22:28.642Z,1.10
2018-08-11T12:24:55.954Z,0.90
2018-08-11T12:27:23.242Z,1.23
2018-08-11T12:29:50.555Z,1.00
2018-08-11T12:32:17.833Z,1.23
2018-08-11T12:34:45.140Z,0.97
2018-08-11T12:37:12.447Z,1.13
2018-08-11T12:39:39.755Z,1.30
2018-08-11T12:42:07.407Z,1.30
2018-08-11T12:44:34.720Z,0.90
2018-08-11T12:47:02.045Z,1.20
2018-08-11T12:49:29.360Z,0.80
2018-08-11T12:51:56.705Z,1.00
2018-08-11T12:54:23.982Z,1.00
2018-08-11T12:56:51.296Z,1.10
2018-08-11T12:59:18.743Z,1.40
2018-08-11T13:01:46.043Z,0.90
2018-08-11T13:04:13.358Z,1.10
2018-08-11T13:06:40.661Z,1.10
2018-08-11T13:09:08.116Z,1.07
2018-08-11T13:11:35.421Z,0.90
2018-08-11T13:14:02.795Z,1.10
2018-08-11T13:16:30.105Z,1.33
2018-08-11T13:18:57.403Z,1.10
2018-08-11T13:21:24.723Z,1.00
2018-08-11T13:23:52.031Z,1.03
2018-08-11T13:26:19.334Z,1.17
2018-08-11T13:28:46.660Z,1.00
2018-08-11T13:31:13.933Z,1.07
2018-08-11T13:33:41.241Z,1.20
2018-08-11T13:36:08.553Z,1.30
2018-08-11T13:38:35.912Z,1.47
2018-08-11T13:41:03.245Z,1.57
2018-08-11T13:43:30.552Z,1.33
2018-08-11T13:45:57.881Z,1.50
2018-08-11T13:48:25.190Z,1.33
2018-08-11T13:50:52.474Z,1.20
2018-08-11T13:53:19.792Z,1.10
2018-08-11T13:55:47.096Z,1.00
2018-08-11T13:58:14.406Z,1.10
2018-08-11T14:00:41.773Z,1.10
2018-08-11T14:03:09.161Z,1.40
2018-08-11T14:05:36.587Z,1.40
2018-08-11T14:08:04.098Z,1.43
2018-08-11T14:10:31.381Z,0.90
2018-08-11T14:12:58.683Z,1.17
2018-08-11T14:15:25.997Z,1.53
2018-08-11T14:17:53.312Z,1.47
2018-08-11T14:20:20.639Z,1.07
2018-08-11T14:22:47.921Z,1.20
2018-08-11T14:25:15.210Z,0.90
2018-08-11T14:27:42.527Z,1.57
2018-08-11T14:30:09.810Z,1.70
2018-08-11T14:32:37.142Z,1.10
2018-08-11T14:35:04.618Z,1.33
2018-08-11T14:37:31.942Z,1.20
2018-08-11T14:39:59.255Z,1.30
2018-08-11T14:42:26.546Z,1.10
2018-08-11T14:44:55.218Z,1.17
2018-08-11T14:47:22.543Z,1.07
2018-08-11T14:49:49.844Z,1.03
2018-08-11T14:52:17.155Z,1.20
2018-08-11T14:54:44.452Z,1.13
2018-08-11T14:57:11.738Z,1.17
2018-08-11T14:59:39.058Z,1.20
2018-08-11T15:02:06.443Z,1.20
2018-08-11T15:04:33.775Z,1.10
2018-08-11T15:07:01.197Z,1.10
2018-08-11T15:09:28.606Z,1.20
2018-08-11T15:11:55.942Z,0.80
2018-08-11T15:14:23.258Z,1.10
2018-08-11T15:16:50.562Z,1.30
2018-08-11T15:19:17.866Z,1.40
2018-08-11T15:21:45.163Z,1.40
2018-08-11T15:24:12.464Z,1.37
2018-08-11T15:26:39.810Z,1.30
2018-08-11T15:29:07.478Z,1.50
2018-08-11T15:31:34.822Z,1.23
2018-08-11T15:34:02.179Z,1.60
2018-08-11T15:36:29.476Z,1.30
2018-08-11T15:38:56.818Z,1.70
2018-08-11T15:41:24.136Z,1.30
2018-08-11T15:43:51.483Z,1.30
2018-08-11T15:46:18.804Z,1.57
2018-08-11T15:48:46.185Z,1.27
2018-08-11T15:51:13.455Z,1.10
2018-08-11T15:53:40.730Z,1.30
2018-08-11T15:56:08.127Z,1.30
2018-08-11T15:58:35.475Z,1.30
2018-08-11T16:01:02.794Z,1.20
2018-08-11T16:03:30.391Z,1.23
2018-08-11T16:05:57.742Z,1.17
2018-08-11T16:08:25.070Z,1.40
2018-08-11T16:10:52.400Z,1.23
2018-08-11T16:13:19.781Z,1.20
2018-08-11T16:15:47.070Z,1.20
2018-08-11T16:18:14.362Z,1.30
2018-08-11T16:20:41.667Z,1.50
2018-08-11T16:23:08.974Z,1.30
2018-08-11T16:25:36.385Z,1.20
2018-08-11T16:28:03.950Z,1.40
2018-08-11T16:30:31.335Z,1.33
2018-08-11T16:32:58.646Z,1.50
2018-08-11T16:35:25.946Z,1.13
2018-08-11T16:37:53.359Z,2.13
2018-08-11T16:40:20.670Z,1.73
2018-08-11T16:42:47.959Z,1.20
2018-08-11T16:45:15.375Z,1.33
2018-08-11T16:47:42.693Z,1.50
2018-08-11T16:50:09.969Z,1.20
2018-08-11T16:52:37.274Z,1.10
2018-08-11T16:55:04.656Z,1.20
2018-08-11T16:57:32.011Z,1.30
2018-08-11T16:59:59.322Z,1.40
2018-08-11T17:02:26.645Z,1.40
2018-08-11T17:04:53.943Z,1.80
2018-08-11T17:07:21.270Z,1.30
2018-08-11T17:09:48.554Z,1.30
2018-08-11T17:12:15.869Z,1.80
2018-08-11T17:14:48.113Z,1.17
2018-08-11T17:17:15.347Z,1.20
2018-08-11T17:19:42.641Z,1.20
2018-08-11T17:22:10.958Z,1.30
2018-08-11T17:24:38.349Z,1.67
2018-08-11T17:27:05.698Z,1.30
2018-08-11T17:29:33.075Z,1.17
2018-08-11T17:32:00.376Z,1.40
2018-08-11T17:34:27.672Z,1.30
2018-08-11T17:36:54.964Z,1.10
2018-08-11T17:39:22.291Z,1.30
2018-08-11T17:41:49.613Z,1.20
2018-08-11T17:44:16.902Z,1.20
2018-08-11T17:46:44.207Z,1.20
2018-08-11T17:49:11.513Z,1.50
2018-08-11T17:51:38.890Z,1.40
2018-08-11T17:54:06.383Z,1.43
2018-08-11T17:56:33.728Z,1.50
2018-08-11T17:59:01.039Z,1.20
2018-08-11T18:01:28.333Z,1.43
2018-08-11T18:03:55.628Z,1.37
2018-08-11T18:06:22.947Z,1.50
2018-08-11T18:08:50.306Z,1.60
2018-08-11T18:11:17.617Z,1.17
2018-08-11T18:13:44.910Z,1.50
2018-08-11T18:16:12.257Z,1.60
2018-08-11T18:18:39.642Z,1.40
2018-08-11T18:21:06.955Z,1.67
2018-08-11T18:23:34.298Z,1.47
2018-08-11T18:26:01.603Z,1.77
2018-08-11T18:28:28.892Z,2.10
2018-08-11T18:30:56.228Z,1.73
2018-08-11T18:33:23.529Z,1.80
2018-08-11T18:35:51.859Z,1.50
2018-08-11T18:38:19.171Z,1.70
2018-08-11T18:40:46.462Z,1.80
2018-08-11T18:43:13.829Z,1.53
2018-08-11T18:45:41.107Z,1.80
2018-08-11T18:48:08.392Z,1.70
2018-08-11T18:50:35.734Z,2.03
2018-08-11T18:53:03.045Z,1.70
2018-08-11T18:55:30.542Z,1.70
2018-08-11T18:57:57.909Z,1.80
2018-08-11T19:00:25.190Z,1.90
2018-08-11T19:02:52.523Z,1.83
2018-08-11T19:05:19.840Z,2.00
2018-08-11T19:07:47.122Z,2.13
2018-08-11T19:10:14.467Z,1.97
2018-08-11T19:12:41.853Z,1.50
2018-08-11T19:15:11.522Z,1.60
2018-08-11T19:17:38.987Z,2.07
2018-08-11T19:20:07.097Z,1.73
2018-08-11T19:22:34.382Z,1.77
2018-08-11T19:25:01.693Z,1.90
2018-08-11T19:27:29.017Z,1.63
2018-08-11T19:29:56.339Z,1.80
2018-08-11T19:32:23.646Z,1.70
2018-08-11T19:34:50.938Z,1.80
2018-08-11T19:37:18.234Z,2.33
2018-08-11T19:39:45.535Z,2.20
2018-08-11T19:42:12.894Z,2.10
2018-08-11T19:44:40.321Z,2.30
2018-08-11T19:47:07.633Z,2.47
2018-08-11T19:49:34.970Z,2.58
2018-08-11T19:52:02.274Z,2.37
2018-08-11T19:54:29.653Z,3.20
2018-08-11T19:56:57.178Z,3.20
2018-08-11T19:59:24.505Z,2.60
2018-08-11T20:01:51.827Z,3.30
2018-08-11T20:04:19.141Z,2.80
2018-08-11T20:06:46.499Z,2.80
2018-08-11T20:09:14.186Z,2.27
2018-08-11T20:11:41.625Z,2.60
2018-08-11T20:14:08.960Z,2.60
2018-08-11T20:16:36.247Z,2.37
2018-08-11T20:19:04.041Z,2.57
2018-08-11T20:21:31.773Z,2.23
2018-08-11T20:23:59.108Z,2.60
2018-08-11T20:26:26.531Z,2.50
2018-08-11T20:28:54.056Z,2.57
2018-08-11T20:31:21.373Z,2.83
2018-08-11T20:33:48.726Z,2.60
2018-08-11T20:36:16.071Z,2.80
2018-08-11T20:38:43.415Z,2.87
2018-08-11T20:41:10.775Z,2.90
2018-08-11T20:43:38.189Z,3.20
2018-08-11T20:46:05.518Z,3.50
2018-08-11T20:48:32.993Z,4.43
2018-08-11T20:51:00.326Z,4.30
2018-08-11T20:53:28.077Z,3.70
2018-08-11T20:55:55.444Z,3.53
2018-08-11T20:58:22.764Z,3.67
2018-08-11T21:00:50.041Z,3.80
2018-08-11T21:03:17.633Z,3.77
2018-08-11T21:05:44.925Z,4.00
2018-08-11T21:08:12.318Z,3.80
2018-08-11T21:10:39.627Z,3.50
2018-08-11T21:13:06.922Z,3.47
2018-08-11T21:15:34.295Z,3.30
2018-08-11T21:18:01.617Z,3.70
2018-08-11T21:20:28.934Z,3.90
2018-08-11T21:22:56.252Z,3.80
2018-08-11T21:25:23.559Z,4.47
2018-08-11T21:27:50.918Z,5.33
2018-08-11T21:30:18.335Z,6.70
2018-08-11T21:32:45.653Z,5.83
2018-08-11T21:35:13.014Z,5.30
2018-08-11T21:37:40.342Z,4.50
2018-08-11T21:40:09.303Z,4.97
2018-08-11T21:42:36.596Z,6.13
2018-08-11T21:45:04.197Z,6.43
2018-08-11T21:47:31.497Z,5.87
2018-08-11T21:49:59.654Z,4.60
2018-08-11T21:52:27.021Z,5.10
2018-08-11T21:54:54.738Z,4.70
2018-08-11T21:57:22.042Z,3.80
2018-08-11T21:59:49.361Z,4.03
2018-08-11T22:02:16.686Z,4.97
2018-08-11T22:04:44.019Z,4.50
2018-08-11T22:07:11.332Z,5.33
2018-08-11T22:09:38.644Z,5.20
2018-08-11T22:12:05.963Z,5.10
2018-08-11T22:14:33.317Z,4.80
2018-08-11T22:17:00.586Z,4.57
2018-08-11T22:19:27.905Z,4.73
2018-08-11T22:21:55.191Z,3.50
2018-08-11T22:24:22.477Z,3.83
2018-08-11T22:26:49.803Z,3.17
2018-08-11T22:29:17.129Z,3.30
2018-08-11T22:31:44.459Z,3.13
2018-08-11T22:34:11.757Z,2.80
2018-08-11T22:36:39.124Z,3.10
2018-08-11T22:39:06.923Z,2.63
2018-08-11T22:41:34.304Z,3.17
2018-08-11T22:44:01.639Z,3.77
2018-08-11T22:46:29.112Z,3.93
2018-08-11T22:48:56.388Z,3.30
2018-08-11T22:51:23.682Z,3.50
2018-08-11T22:53:50.993Z,3.50
2018-08-11T22:56:18.281Z,2.60
2018-08-11T22:58:45.602Z,2.73
2018-08-11T23:01:12.943Z,2.90
2018-08-11T23:03:40.229Z,2.80
2018-08-11T23:06:07.529Z,2.83
2018-08-11T23:08:34.859Z,2.50
2018-08-11T23:11:02.150Z,2.70
2018-08-11T23:13:29.444Z,2.40
2018-08-11T23:15:56.773Z,2.10
2018-08-11T23:18:24.067Z,2.50
2018-08-11T23:20:51.383Z,3.13
2018-08-11T23:23:18.697Z,3.30
2018-08-11T23:25:45.996Z,3.00
2018-08-11T23:28:13.307Z,3.20
2018-08-11T23:30:40.640Z,3.07
2018-08-11T23:33:07.937Z,3.00
2018-08-11T23:35:35.279Z,2.60
2018-08-11T23:38:02.629Z,3.30
2018-08-11T23:40:29.906Z,2.83
2018-08-11T23:42:57.222Z,3.27
2018-08-11T23:45:24.517Z,2.50
2018-08-11T23:47:51.858Z,2.97
2018-08-11T23:50:19.215Z,3.00
2018-08-11T23:52:46.540Z,3.23
2018-08-11T23:55:13.850Z,3.10
2018-08-11T23:57:41.273Z,2.80
